• Join FlightAware (Why Join?)
  • Login
  • US Flag 
03:57PM EDT


 

Airport Tracker/Info


-or-


 

Live Flight TrackerFlight Track Log ✈ N411ML ✈ 15-Jun-2013 ✈ KPVD - 4N1

Flight Track Log - Related Links

Times and Time Zones

All times are in EDT time to prevent confusion due to time zone crossing. See the N411ML flight status page for this flight to view local times or setup timezone preferences in your user account.

Time Position Orientation Groundspeed Altitude Reporting Facility
EDT Latitude Longitude Course Direction KTS MPH feet Rate Location/Type
09:56PM 41.6986 -71.5281 255° West 117 135 1,800  Level Boston Center
09:57PM 41.6906 -71.5672 255° West 116 133 2,600 780 Climbing Boston Center
09:58PM 41.6806 -71.6117 253° West 114 131 3,400 780 Climbing Boston Center
09:59PM 41.6744 -71.6508 258° West 112 129 4,200 720 Climbing Boston Center
10:00PM 41.6644 -71.6953 253° West 112 129 4,900 660 Climbing Boston Center
10:01PM 41.5272 -72.4396 256° West  Level Estimated
10:01PM 41.6583 -71.7289 256° West 113 130 5,500  Level Boston Center
10:02PM 41.5171 -72.4900 255° West  Level Estimated
10:02PM 41.6522 -71.7678 258° West 110 127 6,200  Level Boston Center
10:03PM 41.6442 -71.8122 256° West 112 129 6,500 120 Climbing Boston Center
10:04PM 41.6361 -71.8622 258° West 136 157 6,500  Level Boston Center
10:05PM 41.6300 -71.8903 254° West 141 162 6,500  Level Boston Center
10:05PM 41.6239 -71.9208 255° West 143 165 6,500  Level Boston Center
10:06PM 41.6136 -71.9736 255° West 142 163 6,500  Level Boston Center
10:07PM 41.6036 -72.0292 256° West 140 161 6,500  Level Boston Center
10:08PM 41.5933 -72.0819 255° West 139 160 6,500  Level Boston Center
10:09PM 41.5850 -72.1292 257° West 139 160 6,500  Level Boston Center
10:10PM 41.5747 -72.1792 255° West 139 160 6,500  Level Boston Center
10:11PM 41.5644 -72.2292 255° West 140 161 6,500  Level Boston Center
10:13PM 41.5500 -72.3000 255° West 140 161 6,600  Climbing New York TRACON
10:14PM 41.5333 -72.3500 246° West 139 160 6,600  Level New York TRACON
10:15PM 41.5333 -72.4000 270° West 140 161 6,600  Level New York TRACON
10:16PM 41.5167 -72.4500 246° West 140 161 6,600  Level New York TRACON
10:17PM 41.5167 -72.5000 270° West 142 163 6,600  Level New York TRACON
10:18PM 41.5000 -72.5500 246° West 149 171 6,600  Level New York TRACON
10:19PM 41.4833 -72.6000 246° West 143 165 6,600  Level New York TRACON
10:20PM 41.4833 -72.6500 270° West 143 165 6,600  Level New York TRACON
10:21PM 41.4667 -72.7000 246° West 139 160 6,600  Level New York TRACON
10:22PM 41.4667 -72.7500 270° West 141 162 6,600  Level New York TRACON
10:23PM 41.4500 -72.8000 246° West 143 165 6,600  Level New York TRACON
10:24PM 41.4333 -72.8500 246° West 144 166 6,600  Level New York TRACON
10:25PM 41.4333 -72.9000 270° West 144 166 6,600  Level New York TRACON
10:26PM 41.4167 -72.9500 246° West 143 165 6,600  Level New York TRACON
10:27PM 41.4000 -73.0167 252° West 140 161 6,600  Level New York TRACON
10:28PM 41.4000 -73.0667 270° West 141 162 6,600  Level New York TRACON
10:29PM 41.3833 -73.1167 246° West 141 162 6,600  Level New York TRACON
10:30PM 41.3667 -73.1667 246° West 143 165 6,600  Level New York TRACON
10:31PM 41.3667 -73.2167 270° West 141 162 6,600  Level New York TRACON
10:32PM 41.3500 -73.2500 236° Southwest 143 165 6,600  Level New York TRACON
10:33PM 41.3500 -73.3000 270° West 145 167 6,600  Level New York TRACON
10:34PM 41.3333 -73.3667 252° West 143 165 6,600  Level New York TRACON
10:35PM 41.3167 -73.4167 246° West 144 166 6,600  Level New York TRACON
10:36PM 41.3000 -73.4667 246° West 145 167 6,600 -120 Level New York TRACON
10:37PM 41.3000 -73.5167 270° West 147 169 6,400 -240 Descending New York TRACON
10:38PM 41.2833 -73.5500 236° Southwest 152 175 6,200 -420 Descending New York TRACON
10:39PM 41.2667 -73.6167 252° West 152 175 5,700 -420 Descending New York TRACON
10:40PM 41.2667 -73.6667 270° West 157 181 5,400 -360 Descending New York TRACON
10:41PM 41.2500 -73.7167 246° West 156 180 5,000 -420 Descending New York TRACON
10:42PM 41.2333 -73.7667 246° West 154 177 4,600 -300 Descending New York TRACON
10:43PM 41.2333 -73.8333 270° West 148 170 4,500 -60 Descending New York TRACON
10:44PM 41.2167 -73.8833 246° West 142 163 4,500 -240 Level New York TRACON
10:45PM 41.2000 -73.9333 246° West 155 178 4,000 -420 Descending New York TRACON
10:46PM 41.2000 -74.0000 270° West 163 188 3,600 -420 Descending New York TRACON
10:47PM 41.2167 -74.0333 304° West 150 173 3,200 -480 Descending New York TRACON
10:49PM 41.1814 -74.0920 254° West  Level FlightAware Approximate
10:56PM 41.1167 -74.3333 246° West  Level FlightAware Approximate
10:57PM 41.1284 -74.3465 246° West  Level Estimated
10:58PM 41.1284 -74.3465 246° West  Level Estimated
10:59PM 41.1284 -74.3465 246° West  Level Estimated
11:00PM 41.1284 -74.3465 246° West  Level Estimated
11:01PM 41.1284 -74.3465 246° West  Level Estimated
11:02PM 41.1284 -74.3465 246° West  Level Estimated
11:03PM 41.1284 -74.3465 246° West  Level Estimated
11:04PM 41.1284 -74.3465 246° West  Level Estimated
11:05PM 41.1284 -74.3465 246° West  Level Estimated
11:06PM 41.1284 -74.3465 246° West  Level Estimated
11:07PM 41.1284 -74.3465 246° West  Level Estimated
11:08PM 41.1284 -74.3465 246° West  Level Estimated
11:09PM 41.1284 -74.3465 246° West  Level Estimated
11:10PM 41.1284 -74.3465 246° West  Level Estimated
11:11PM 41.1284 -74.3465 246° West  Level Estimated